Time;durP1;ratioP1;P1;durP2;ratioP2;P2;SDS_P1;SDS_P2;PMS_P1;PMS_P2;Temp;Humidity;BMP_temperature;BMP_pressure;BME280_temperature;BME280_humidity;BME280_pressure;Samples;Min_cycle;Max_cycle;Signal;HPM_P1;HPM_P2
2023/09/02 00:01:37;;;;;;;;;;;;;;;26.65;53.98;101597.72;5056125;28;19923;-86
2023/09/02 00:04:02;;;;;;;;;;;;;;;26.63;54.06;101595.06;5059316;28;19927;-86
2023/09/02 00:06:28;;;;;;;;;;;;;;;26.65;53.76;101600.41;5037095;28;20475;-86
2023/09/02 00:08:54;;;;;;;;;;;;;;;26.66;53.96;101605.78;5063114;28;19917;-86
2023/09/02 00:11:19;;;;;;;;;;;;;;;26.64;54.10;101599.50;5052640;28;19975;-85
2023/09/02 00:13:45;;;;;;;;;;;;;;;26.63;53.85;101597.75;5063630;28;19943;-84
2023/09/02 00:16:10;;;;;;;;;;;;;;;26.64;54.01;101602.19;5059046;28;20275;-84
2023/09/02 00:18:36;;;;;;;;;;;;;;;26.64;54.05;101606.66;5036797;28;20015;-85
2023/09/02 00:21:02;;;;;;;;;;;;;;;26.63;54.12;101605.78;5033733;28;19921;-86
2023/09/02 00:23:27;;;;;;;;;;;;;;;26.60;54.03;101606.66;5050135;28;19924;-85
2023/09/02 00:25:52;;;;;;;;;;;;;;;26.60;53.92;101605.75;5051746;28;19920;-85
2023/09/02 00:28:18;;;;;;;;;;;;;;;26.60;53.88;101609.31;5067683;28;19964;-85
2023/09/02 00:30:43;;;;;;;;;;;;;;;26.63;53.80;101604.88;5069785;28;19916;-85
2023/09/02 00:33:09;;;;;;;;;;;;;;;26.61;54.08;101604.88;5049782;28;20029;-85
2023/09/02 00:35:34;;;;;;;;;;;;;;;26.60;53.79;101609.31;5034831;28;20305;-86
2023/09/02 00:38:00;;;;;;;;;;;;;;;26.62;53.85;101601.31;5062463;28;19917;-85
2023/09/02 00:40:25;;;;;;;;;;;;;;;26.63;53.72;101607.53;5059416;28;20302;-86
2023/09/02 00:42:50;;;;;;;;;;;;;;;26.60;54.11;101600.41;5064449;28;20373;-85
2023/09/02 00:45:16;;;;;;;;;;;;;;;26.58;54.16;101602.19;5057974;28;19918;-85
2023/09/02 00:47:41;;;;;;;;;;;;;;;26.59;54.19;101601.31;5048155;28;19917;-87
2023/09/02 00:50:07;;;;;;;;;;;;;;;26.59;54.03;101601.31;5055907;28;19967;-84
2023/09/02 00:52:33;;;;;;;;;;;;;;;26.57;54.25;101603.09;5041316;28;19917;-85
2023/09/02 00:54:58;;;;;;;;;;;;;;;26.54;54.20;101601.28;5056436;28;20358;-85
2023/09/02 00:57:24;;;;;;;;;;;;;;;26.54;54.38;101600.34;5063488;28;20385;-85
2023/09/02 00:59:49;;;;;;;;;;;;;;;26.55;54.24;101595.00;5051909;28;20440;-86
2023/09/02 01:02:15;;;;;;;;;;;;;;;26.53;54.44;101591.44;5073111;28;19946;-86
2023/09/02 01:04:40;;;;;;;;;;;;;;;26.54;53.97;101592.31;5063434;28;19934;-85
2023/09/02 01:07:05;;;;;;;;;;;;;;;26.54;54.28;101601.28;5059304;28;19920;-86
2023/09/02 01:09:31;;;;;;;;;;;;;;;26.53;54.14;101594.13;5040329;28;19970;-86
2023/09/02 01:11:56;;;;;;;;;;;;;;;26.58;53.79;101594.16;5062980;28;20369;-86
2023/09/02 01:14:22;;;;;;;;;;;;;;;26.58;53.67;101597.72;5050259;28;19971;-86
2023/09/02 01:16:47;;;;;;;;;;;;;;;26.55;53.80;101586.97;5050246;28;19917;-86
2023/09/02 01:19:14;;;;;;;;;;;;;;;26.56;53.64;101598.56;5050209;28;20310;-86
2023/09/02 01:21:46;;;;;;;;;;;;;;;26.54;53.76;101595.91;5059295;28;20011;-86
2023/09/02 01:24:14;;;;;;;;;;;;;;;26.53;54.22;101595.91;5056915;28;19913;-86
2023/09/02 01:26:55;;;;;;;;;;;;;;;26.53;53.92;101591.44;5059543;28;20406;-86
2023/09/02 01:29:21;;;;;;;;;;;;;;;26.54;53.71;101586.97;5058554;28;20530;-86
2023/09/02 01:31:46;;;;;;;;;;;;;;;26.53;54.08;101588.75;5048377;28;19913;-86
2023/09/02 01:34:12;;;;;;;;;;;;;;;26.54;53.79;101587.88;5055128;28;19916;-86
2023/09/02 01:36:38;;;;;;;;;;;;;;;26.51;54.01;101589.66;5054006;28;19913;-86
2023/09/02 01:39:05;;;;;;;;;;;;;;;26.51;53.96;101589.66;5056583;28;19923;-86
2023/09/02 01:41:31;;;;;;;;;;;;;;;26.51;54.26;101597.69;5056115;28;19913;-86
2023/09/02 01:43:56;;;;;;;;;;;;;;;26.51;53.76;101595.91;5048636;28;19919;-86
2023/09/02 01:46:22;;;;;;;;;;;;;;;26.50;53.91;101593.22;5055136;28;19924;-86
2023/09/02 01:48:47;;;;;;;;;;;;;;;26.47;54.09;101591.44;5053614;28;19916;-85
2023/09/02 01:51:13;;;;;;;;;;;;;;;26.51;53.71;101601.25;5054475;28;19913;-86
2023/09/02 01:53:38;;;;;;;;;;;;;;;26.52;53.96;101597.69;5036973;28;19924;-85
2023/09/02 01:56:03;;;;;;;;;;;;;;;26.51;53.92;101597.69;5065414;28;19916;-86
2023/09/02 01:58:29;;;;;;;;;;;;;;;26.49;54.07;101600.34;5069880;28;19959;-86
2023/09/02 02:00:54;;;;;;;;;;;;;;;26.48;54.00;101598.59;5034920;28;19916;-86
2023/09/02 02:03:39;;;;;;;;;;;;;;;26.45;54.02;101603.03;5076662;28;19916;-86
2023/09/02 02:06:05;;;;;;;;;;;;;;;26.47;53.81;101601.25;5051901;28;20439;-86
2023/09/02 02:08:37;;;;;;;;;;;;;;;26.49;53.93;101602.16;5053427;28;19920;-86
2023/09/02 02:11:02;;;;;;;;;;;;;;;26.48;53.77;101601.25;5053274;28;19921;-86
2023/09/02 02:13:28;;;;;;;;;;;;;;;26.45;53.84;101597.69;5060835;28;19917;-86
2023/09/02 02:15:53;;;;;;;;;;;;;;;26.44;53.81;101603.91;5066221;28;19919;-86
2023/09/02 02:18:19;;;;;;;;;;;;;;;26.45;53.88;101601.25;5053134;28;20336;-86
2023/09/02 02:20:46;;;;;;;;;;;;;;;26.44;53.57;101601.22;5054378;28;19916;-85
2023/09/02 02:23:12;;;;;;;;;;;;;;;26.40;53.46;101598.56;5053008;28;19912;-86
2023/09/02 02:25:37;;;;;;;;;;;;;;;26.40;53.43;101589.63;5052789;28;19982;-85
2023/09/02 02:28:04;;;;;;;;;;;;;;;26.44;53.44;101590.50;5058562;28;19921;-86
2023/09/02 02:30:30;;;;;;;;;;;;;;;26.43;53.64;101586.06;5066091;28;19916;-85
2023/09/02 02:32:55;;;;;;;;;;;;;;;26.41;53.59;101580.69;5063806;28;20373;-85
2023/09/02 02:35:21;;;;;;;;;;;;;;;26.38;53.43;101576.25;5041376;28;20397;-84
2023/09/02 02:37:47;;;;;;;;;;;;;;;26.41;53.66;101584.25;5048439;28;19917;-84
2023/09/02 02:40:12;;;;;;;;;;;;;;;26.38;53.74;101576.25;5054490;28;19920;-85
2023/09/02 02:42:37;;;;;;;;;;;;;;;26.40;53.60;101577.13;5053785;28;20497;-85
2023/09/02 02:45:03;;;;;;;;;;;;;;;26.42;53.18;101579.81;5035601;28;19912;-86
2023/09/02 02:47:28;;;;;;;;;;;;;;;26.41;53.46;101578.03;5058555;28;19917;-85
2023/09/02 02:49:54;;;;;;;;;;;;;;;26.41;53.31;101584.25;5053629;28;19924;-85
2023/09/02 02:52:19;;;;;;;;;;;;;;;26.40;53.62;101587.84;5056995;28;19916;-86
2023/09/02 02:54:45;;;;;;;;;;;;;;;26.39;53.38;101596.78;5056820;28;19935;-85
2023/09/02 02:57:10;;;;;;;;;;;;;;;26.36;53.64;101596.78;5068723;28;19916;-85
2023/09/02 02:59:36;;;;;;;;;;;;;;;26.35;53.48;101600.34;5056214;28;19962;-85
2023/09/02 03:02:01;;;;;;;;;;;;;;;26.39;53.13;101604.81;5035962;28;20027;-86
2023/09/02 03:04:26;;;;;;;;;;;;;;;26.37;53.23;101598.56;5062168;28;19924;-85
2023/09/02 03:06:52;;;;;;;;;;;;;;;26.34;53.55;101597.66;5035381;28;20338;-85
2023/09/02 03:09:17;;;;;;;;;;;;;;;26.35;53.22;101599.44;5063708;28;20409;-86
2023/09/02 03:11:43;;;;;;;;;;;;;;;26.32;53.38;101607.47;5052241;28;19916;-85
2023/09/02 03:14:08;;;;;;;;;;;;;;;26.32;53.43;101604.78;5052953;28;19912;-85
2023/09/02 03:16:34;;;;;;;;;;;;;;;26.30;53.37;101599.44;5035094;28;20524;-85
2023/09/02 03:18:59;;;;;;;;;;;;;;;26.29;53.16;101602.09;5055228;28;19916;-86
2023/09/02 03:21:25;;;;;;;;;;;;;;;26.30;53.09;101596.75;5061335;28;20382;-85
2023/09/02 03:23:50;;;;;;;;;;;;;;;26.30;53.27;101602.09;5042484;28;19916;-85
2023/09/02 03:26:15;;;;;;;;;;;;;;;26.31;53.08;101598.56;5061309;28;19917;-86
2023/09/02 03:28:41;;;;;;;;;;;;;;;26.35;53.17;101602.09;5072790;28;19917;-85
2023/09/02 03:31:10;;;;;;;;;;;;;;;26.34;52.97;101606.56;5071541;28;20393;-84
2023/09/02 03:33:36;;;;;;;;;;;;;;;26.29;53.13;101619.09;5067262;28;19916;-85
2023/09/02 03:36:02;;;;;;;;;;;;;;;26.29;53.21;101613.72;5064483;28;19944;-86
2023/09/02 03:38:28;;;;;;;;;;;;;;;26.29;53.09;101613.72;5061786;28;20278;-86
2023/09/02 03:40:53;;;;;;;;;;;;;;;26.30;53.30;101615.50;5063629;28;19950;-86
2023/09/02 03:43:18;;;;;;;;;;;;;;;26.31;53.30;101617.31;5062251;28;19921;-86
2023/09/02 03:45:44;;;;;;;;;;;;;;;26.31;53.15;101616.38;5061320;28;19924;-85
2023/09/02 03:48:09;;;;;;;;;;;;;;;26.26;53.11;101612.81;5049985;28;20358;-86
2023/09/02 03:50:49;;;;;;;;;;;;;;;26.27;53.28;101612.81;5061369;28;20362;-85
2023/09/02 03:53:14;;;;;;;;;;;;;;;26.26;53.34;101613.69;5053892;28;19917;-86
2023/09/02 03:55:40;;;;;;;;;;;;;;;26.25;53.44;101622.63;5067816;28;19923;-86
2023/09/02 03:58:05;;;;;;;;;;;;;;;26.11;53.20;101597.59;5070549;28;20350;-86
2023/09/02 04:00:30;;;;;;;;;;;;;;;26.25;53.29;101622.63;5069228;28;20390;-90
2023/09/02 04:02:56;;;;;;;;;;;;;;;26.29;53.35;101615.47;5058831;28;19963;-88
2023/09/02 04:05:21;;;;;;;;;;;;;;;26.24;53.42;101620.84;5044218;28;20003;-87
2023/09/02 04:07:47;;;;;;;;;;;;;;;26.25;53.08;101619.97;5050806;28;19995;-88
2023/09/02 04:10:12;;;;;;;;;;;;;;;26.22;53.45;101622.59;5064563;28;20376;-88
2023/09/02 04:12:38;;;;;;;;;;;;;;;26.20;53.50;101619.94;5044753;28;20587;-88
2023/09/02 04:15:03;;;;;;;;;;;;;;;26.20;53.47;101619.03;5052340;28;19936;-88
2023/09/02 04:17:29;;;;;;;;;;;;;;;26.22;53.35;101621.72;5037793;28;19920;-87
2023/09/02 04:19:54;;;;;;;;;;;;;;;26.18;53.49;101621.72;5060176;28;20027;-87
2023/09/02 04:22:20;;;;;;;;;;;;;;;26.15;53.41;101618.13;5051964;28;20449;-88
2023/09/02 04:24:45;;;;;;;;;;;;;;;26.13;53.54;101622.59;5052725;28;20378;-89
2023/09/02 04:27:11;;;;;;;;;;;;;;;26.15;53.41;101615.47;5041177;28;20019;-89
2023/09/02 04:29:36;;;;;;;;;;;;;;;26.17;53.38;101619.03;5042999;28;20003;-88
2023/09/02 04:32:02;;;;;;;;;;;;;;;26.10;53.67;101615.44;5045290;28;20518;-87
2023/09/02 04:34:28;;;;;;;;;;;;;;;26.12;53.97;101619.03;5059269;28;20310;-88
2023/09/02 04:36:53;;;;;;;;;;;;;;;26.14;54.08;101621.69;5056918;28;20337;-89
2023/09/02 04:39:18;;;;;;;;;;;;;;;26.12;53.81;101624.38;5060174;28;20011;-88
2023/09/02 04:41:44;;;;;;;;;;;;;;;26.18;54.05;101628.84;5057669;28;20378;-88
2023/09/02 04:44:09;;;;;;;;;;;;;;;26.16;54.15;101628.88;5050660;28;20396;-89
2023/09/02 04:46:35;;;;;;;;;;;;;;;26.13;54.13;101634.19;5053060;28;19928;-88
2023/09/02 04:49:01;;;;;;;;;;;;;;;26.13;54.03;101623.47;5060585;28;20113;-89
2023/09/02 04:51:27;;;;;;;;;;;;;;;26.17;54.08;101629.75;5050559;28;19920;-89
2023/09/02 04:53:53;;;;;;;;;;;;;;;26.12;54.36;101626.13;5051479;28;19921;-90
2023/09/02 04:56:18;;;;;;;;;;;;;;;26.15;54.32;101620.81;5051764;28;19913;-87
2023/09/02 04:58:44;;;;;;;;;;;;;;;26.17;54.46;101622.59;5057168;28;20567;-90
2023/09/02 05:01:10;;;;;;;;;;;;;;;26.19;54.37;101619.94;5040728;28;19912;-90
2023/09/02 05:03:35;;;;;;;;;;;;;;;26.17;54.75;101619.94;5063259;28;19917;-89
2023/09/02 05:06:01;;;;;;;;;;;;;;;26.16;54.78;101619.91;5049725;28;19920;-88
2023/09/02 05:08:31;;;;;;;;;;;;;;;26.16;54.70;101626.19;5054364;28;20378;-87
2023/09/02 05:10:57;;;;;;;;;;;;;;;26.18;54.54;101616.38;5054430;28;19913;-87
2023/09/02 05:13:22;;;;;;;;;;;;;;;26.17;54.64;101614.56;5056651;28;19932;-88
2023/09/02 05:15:49;;;;;;;;;;;;;;;26.20;54.62;101617.28;5048574;28;19923;-87
2023/09/02 05:18:14;;;;;;;;;;;;;;;26.15;55.11;101613.66;5078879;28;19916;-85
2023/09/02 05:20:40;;;;;;;;;;;;;;;26.19;55.12;101619.94;5056364;28;20413;-88
2023/09/02 05:23:05;;;;;;;;;;;;;;;26.14;55.27;101619.94;5063964;28;19916;-88
2023/09/02 05:25:31;;;;;;;;;;;;;;;26.14;55.12;101619.00;5048464;28;19982;-88
2023/09/02 05:27:56;;;;;;;;;;;;;;;26.14;55.15;101610.97;5065107;28;20403;-88
2023/09/02 05:30:22;;;;;;;;;;;;;;;26.14;55.04;101616.34;5050923;28;20373;-87
2023/09/02 05:32:47;;;;;;;;;;;;;;;26.09;55.87;101624.34;5062058;28;19916;-87
2023/09/02 05:35:13;;;;;;;;;;;;;;;26.13;55.79;101617.25;5068347;28;20313;-89
2023/09/02 05:37:38;;;;;;;;;;;;;;;26.12;55.64;101619.03;5062623;28;20317;-89
2023/09/02 05:40:04;;;;;;;;;;;;;;;26.12;55.69;101620.78;5064234;28;20001;-87
2023/09/02 05:42:30;;;;;;;;;;;;;;;26.08;56.07;101614.56;5066320;28;19967;-87
2023/09/02 05:44:56;;;;;;;;;;;;;;;26.11;56.31;101619.00;5045485;28;19970;-87
2023/09/02 05:47:21;;;;;;;;;;;;;;;26.12;55.70;101618.09;5071405;28;19921;-86
2023/09/02 05:49:47;;;;;;;;;;;;;;;26.11;55.75;101622.59;5061085;28;20464;-87
2023/09/02 05:52:12;;;;;;;;;;;;;;;26.09;56.89;101624.34;5041679;28;20460;-88
2023/09/02 05:54:38;;;;;;;;;;;;;;;26.11;56.20;101627.94;5038371;28;19923;-88
2023/09/02 05:57:03;;;;;;;;;;;;;;;26.10;56.02;101620.81;5036153;28;19928;-87
2023/09/02 05:59:29;;;;;;;;;;;;;;;26.09;56.62;101620.78;5062247;28;20374;-88
2023/09/02 06:01:55;;;;;;;;;;;;;;;26.11;55.99;101630.59;5067673;28;19921;-86
2023/09/02 06:04:20;;;;;;;;;;;;;;;26.09;56.36;101632.38;5042099;28;19974;-87
2023/09/02 06:06:46;;;;;;;;;;;;;;;26.06;56.17;101632.38;5060131;28;20015;-88
2023/09/02 06:09:11;;;;;;;;;;;;;;;26.10;56.19;101634.19;5069189;28;20317;-88
2023/09/02 06:11:37;;;;;;;;;;;;;;;26.05;56.37;101635.06;5050321;28;20401;-87
2023/09/02 06:14:02;;;;;;;;;;;;;;;26.08;56.42;101637.75;5049442;28;20381;-86
2023/09/02 06:16:28;;;;;;;;;;;;;;;26.08;56.86;101638.66;5040388;28;19916;-85
2023/09/02 06:18:53;;;;;;;;;;;;;;;26.10;56.14;101647.56;5053073;28;20361;-87
2023/09/02 06:21:18;;;;;;;;;;;;;;;26.06;56.72;101639.53;5058431;28;19923;-88
2023/09/02 06:23:44;;;;;;;;;;;;;;;26.05;56.40;101645.75;5065315;28;20385;-89
2023/09/02 06:26:11;;;;;;;;;;;;;;;26.09;57.02;101648.44;5068439;28;20382;-89
2023/09/02 06:28:37;;;;;;;;;;;;;;;26.06;56.98;101650.25;5040412;28;20318;-89
2023/09/02 06:31:06;;;;;;;;;;;;;;;26.06;57.03;101652.91;5061588;28;19919;-88
2023/09/02 06:33:31;;;;;;;;;;;;;;;26.04;56.91;101662.72;5041621;28;20360;-87
2023/09/02 06:36:12;;;;;;;;;;;;;;;26.05;56.80;101654.69;5040424;28;19917;-89
2023/09/02 06:38:38;;;;;;;;;;;;;;;26.06;56.87;101664.50;5052260;28;19913;-88
2023/09/02 06:41:13;;;;;;;;;;;;;;;26.06;57.29;101667.19;5036110;28;19922;-89
2023/09/02 06:43:38;;;;;;;;;;;;;;;26.05;57.19;101661.81;5051881;28;19935;-90
2023/09/02 06:46:22;;;;;;;;;;;;;;;26.06;57.08;101661.84;5029094;28;19999;-90
2023/09/02 06:48:48;;;;;;;;;;;;;;;26.07;57.19;101660.94;5056854;28;19936;-89
2023/09/02 06:51:15;;;;;;;;;;;;;;;26.05;57.50;101667.19;5048159;28;20350;-90
2023/09/02 06:53:44;;;;;;;;;;;;;;;26.03;57.40;101667.16;5047633;28;19921;-87
2023/09/02 06:56:11;;;;;;;;;;;;;;;26.11;57.23;101670.78;5000122;28;19913;-89
2023/09/02 06:58:41;;;;;;;;;;;;;;;26.11;57.70;101664.53;5057643;28;19921;-89
2023/09/02 07:01:06;;;;;;;;;;;;;;;26.14;57.07;101670.81;5030869;28;20350;-88
2023/09/02 07:03:31;;;;;;;;;;;;;;;26.15;57.21;101663.66;5040542;28;19917;-87
2023/09/02 07:06:04;;;;;;;;;;;;;;;26.16;57.21;101668.09;5015540;28;20003;-89
2023/09/02 07:08:30;;;;;;;;;;;;;;;26.15;56.93;101663.66;5050129;28;19936;-88
2023/09/02 07:10:55;;;;;;;;;;;;;;;26.16;56.92;101668.09;5030642;28;19913;-88
2023/09/02 07:13:20;;;;;;;;;;;;;;;26.17;56.69;101669.91;5048491;28;19953;-88
2023/09/02 07:15:46;;;;;;;;;;;;;;;26.16;57.04;101670.78;5017282;28;19925;-89
2023/09/02 07:18:12;;;;;;;;;;;;;;;26.14;56.95;101665.44;5052499;28;19920;-89
2023/09/02 07:20:37;;;;;;;;;;;;;;;26.18;56.70;101682.38;5011662;28;20350;-88
2023/09/02 07:23:03;;;;;;;;;;;;;;;26.15;56.44;101685.06;5045912;28;20529;-89
2023/09/02 07:25:29;;;;;;;;;;;;;;;26.14;56.45;101685.94;5043292;28;19913;-89
2023/09/02 07:27:54;;;;;;;;;;;;;;;26.11;56.32;101681.47;5051886;28;19917;-88
2023/09/02 07:30:20;;;;;;;;;;;;;;;26.09;56.64;101683.25;5012684;28;19924;-89
2023/09/02 07:32:47;;;;;;;;;;;;;;;26.09;56.91;101682.38;5017160;28;20422;-88
2023/09/02 07:35:12;;;;;;;;;;;;;;;26.11;56.32;101684.16;5031722;28;19921;-91
2023/09/02 07:37:38;;;;;;;;;;;;;;;26.06;56.42;101682.38;5028884;28;19921;-89
2023/09/02 07:40:03;;;;;;;;;;;;;;;26.06;56.13;101682.38;5029921;28;20012;-87
2023/09/02 07:42:29;;;;;;;;;;;;;;;26.06;56.47;101672.53;5054989;28;20375;-86
2023/09/02 07:44:54;;;;;;;;;;;;;;;26.03;56.44;101677.88;5050575;28;19917;-87
2023/09/02 07:47:19;;;;;;;;;;;;;;;26.04;56.18;101681.47;5032936;28;19924;-87
2023/09/02 07:49:45;;;;;;;;;;;;;;;26.07;55.75;101686.81;5035537;28;20413;-87
2023/09/02 07:52:11;;;;;;;;;;;;;;;26.06;56.13;101690.41;5067131;28;19921;-89
2023/09/02 07:54:36;;;;;;;;;;;;;;;26.04;55.81;101694.84;5078648;28;19916;-89
2023/09/02 07:57:03;;;;;;;;;;;;;;;26.07;55.67;101697.53;5068642;28;19932;-89
2023/09/02 07:59:28;;;;;;;;;;;;;;;26.03;55.70;101688.56;5044469;28;20468;-89
2023/09/02 08:01:54;;;;;;;;;;;;;;;26.03;55.63;101690.38;5031934;28;19948;-89
2023/09/02 08:04:19;;;;;;;;;;;;;;;26.02;55.80;101688.59;5051700;28;19971;-90
2023/09/02 08:06:45;;;;;;;;;;;;;;;26.00;55.83;101697.50;5043535;28;19917;-89
2023/09/02 08:09:10;;;;;;;;;;;;;;;25.99;55.73;101686.78;5073763;28;19963;-89
2023/09/02 08:11:36;;;;;;;;;;;;;;;26.07;55.42;101689.50;5073431;28;19921;-90
2023/09/02 08:14:02;;;;;;;;;;;;;;;26.05;55.54;101689.47;5048539;28;20447;-90
2023/09/02 08:16:28;;;;;;;;;;;;;;;26.09;55.37;101685.03;5066201;28;19917;-91
2023/09/02 08:18:55;;;;;;;;;;;;;;;26.07;55.46;101690.38;5061518;28;19923;-89
2023/09/02 08:21:21;;;;;;;;;;;;;;;26.06;55.26;101690.41;5083543;28;19924;-90
2023/09/02 08:23:48;;;;;;;;;;;;;;;26.05;54.98;101685.91;5061535;28;19917;-91
2023/09/02 08:26:13;;;;;;;;;;;;;;;26.06;55.40;101687.72;5072643;28;19917;-90
2023/09/02 08:28:40;;;;;;;;;;;;;;;26.06;55.33;101688.59;5087079;28;20297;-90
2023/09/02 08:31:09;;;;;;;;;;;;;;;26.07;55.37;101692.16;5032243;28;19982;-92
2023/09/02 08:33:35;;;;;;;;;;;;;;;26.06;55.36;101698.44;5043160;28;19982;-92
2023/09/02 08:36:00;;;;;;;;;;;;;;;26.09;55.45;101693.06;5085012;28;19924;-90
2023/09/02 08:38:26;;;;;;;;;;;;;;;26.11;55.13;101694.88;5050631;28;19917;-90
2023/09/02 08:40:57;;;;;;;;;;;;;;;26.12;55.37;101698.44;5047816;28;20340;-91
2023/09/02 08:43:25;;;;;;;;;;;;;;;26.10;55.22;101702.88;5048681;28;19924;-91
2023/09/02 08:45:51;;;;;;;;;;;;;;;26.09;55.01;101693.97;5044116;28;19959;-92
2023/09/02 08:48:20;;;;;;;;;;;;;;;26.11;55.37;101691.31;5051066;28;19917;-89
2023/09/02 08:50:45;;;;;;;;;;;;;;;26.12;54.95;101683.28;5075129;28;19916;-90
2023/09/02 08:53:11;;;;;;;;;;;;;;;26.12;55.13;101688.63;5043273;28;19917;-89
2023/09/02 08:55:36;;;;;;;;;;;;;;;26.11;54.83;101692.19;5022942;28;19936;-89
2023/09/02 08:58:02;;;;;;;;;;;;;;;26.11;55.19;101691.31;5070772;28;20341;-89
2023/09/02 09:00:27;;;;;;;;;;;;;;;26.13;55.11;101694.88;5072983;28;19917;-89
2023/09/02 09:02:53;;;;;;;;;;;;;;;26.14;55.17;101686.84;5044807;28;19920;-90
2023/09/02 09:05:18;;;;;;;;;;;;;;;26.16;55.01;101689.53;5064042;28;19925;-90
2023/09/02 09:07:44;;;;;;;;;;;;;;;26.15;55.18;101687.75;5063896;28;20479;-90
2023/09/02 09:10:10;;;;;;;;;;;;;;;26.14;54.61;101689.53;5075428;28;20384;-87
2023/09/02 09:12:36;;;;;;;;;;;;;;;26.14;54.75;101696.66;5061258;28;19932;-88
2023/09/02 09:15:02;;;;;;;;;;;;;;;26.16;54.91;101695.78;5056179;28;20322;-88
2023/09/02 09:17:28;;;;;;;;;;;;;;;26.21;54.61;101693.13;5067272;28;20387;-89
2023/09/02 09:19:53;;;;;;;;;;;;;;;26.20;54.83;101700.28;5059699;28;19921;-88
2023/09/02 09:22:19;;;;;;;;;;;;;;;26.17;54.78;101694.00;5037232;28;20475;-90
2023/09/02 09:24:44;;;;;;;;;;;;;;;26.19;54.89;101701.16;5047564;28;20402;-89
2023/09/02 09:27:10;;;;;;;;;;;;;;;26.22;54.30;101694.03;5053405;28;19929;-89
2023/09/02 09:29:38;;;;;;;;;;;;;;;26.23;54.91;101691.34;5041682;28;20386;-88
2023/09/02 09:32:08;;;;;;;;;;;;;;;26.21;54.89;101685.09;5045986;28;19925;-90
2023/09/02 09:34:42;;;;;;;;;;;;;;;26.23;54.75;101683.31;5055205;28;20314;-90
2023/09/02 09:37:09;;;;;;;;;;;;;;;26.31;54.78;101680.66;5048437;28;19916;-90
2023/09/02 09:39:53;;;;;;;;;;;;;;;26.25;54.82;101675.31;5034694;28;19935;-89
2023/09/02 09:42:32;;;;;;;;;;;;;;;26.24;54.71;101678.84;5026035;28;19917;-89
2023/09/02 09:44:58;;;;;;;;;;;;;;;26.26;54.43;101677.06;5056057;28;19917;-89
2023/09/02 09:47:25;;;;;;;;;;;;;;;26.27;54.68;101679.78;5050316;28;19931;-90
2023/09/02 09:49:50;;;;;;;;;;;;;;;26.28;54.71;101681.53;5037622;28;19932;-90
2023/09/02 09:52:17;;;;;;;;;;;;;;;26.26;54.77;101679.75;5069902;28;19913;-92
2023/09/02 09:54:45;;;;;;;;;;;;;;;26.25;54.77;101678.88;5067912;28;19914;-89
2023/09/02 09:57:13;;;;;;;;;;;;;;;26.29;54.58;101663.69;5080641;28;20002;-88
2023/09/02 09:59:38;;;;;;;;;;;;;;;26.30;54.61;101676.19;5060719;28;19929;-89
2023/09/02 10:02:07;;;;;;;;;;;;;;;26.32;54.45;101678.00;5067651;28;20165;-90
2023/09/02 10:04:33;;;;;;;;;;;;;;;26.30;54.27;101668.16;5042491;28;19920;-87
2023/09/02 10:07:00;;;;;;;;;;;;;;;26.33;54.67;101671.75;5044556;28;19953;-89
2023/09/02 10:09:37;;;;;;;;;;;;;;;26.33;54.61;101671.75;5059001;28;20321;-89
2023/09/02 10:12:10;;;;;;;;;;;;;;;26.35;54.55;101677.09;5070072;28;19971;-88
2023/09/02 10:14:35;;;;;;;;;;;;;;;26.32;54.36;101675.31;5067676;28;19959;-88
2023/09/02 10:17:01;;;;;;;;;;;;;;;26.33;54.29;101671.75;5081697;28;19964;-89
2023/09/02 10:19:26;;;;;;;;;;;;;;;26.38;54.16;101674.44;5048547;28;20317;-87
2023/09/02 10:21:52;;;;;;;;;;;;;;;26.38;54.08;101680.69;5073773;28;19913;-88
2023/09/02 10:24:17;;;;;;;;;;;;;;;26.35;54.25;101678.03;5049888;28;20397;-88
2023/09/02 10:26:48;;;;;;;;;;;;;;;26.33;54.03;101673.53;5047581;28;20390;-88
2023/09/02 10:29:15;;;;;;;;;;;;;;;26.36;54.29;101678.91;5050455;28;19921;-89
2023/09/02 10:31:40;;;;;;;;;;;;;;;26.34;54.00;101686.03;5072798;28;20563;-87
2023/09/02 10:34:25;;;;;;;;;;;;;;;26.40;54.06;101680.72;5052090;28;19967;-89
2023/09/02 10:36:53;;;;;;;;;;;;;;;26.46;53.65;101686.09;5080795;28;20356;-89
2023/09/02 10:39:39;;;;;;;;;;;;;;;26.46;53.76;101685.16;5073656;28;20398;-89
2023/09/02 10:42:05;;;;;;;;;;;;;;;26.37;53.63;101656.56;5032990;28;19948;-88
2023/09/02 10:44:33;;;;;;;;;;;;;;;26.49;53.28;101679.84;5081233;28;19967;-90
2023/09/02 10:46:58;;;;;;;;;;;;;;;26.44;53.56;101679.81;5047749;28;20019;-90
2023/09/02 10:49:27;;;;;;;;;;;;;;;26.48;53.71;101676.28;5020873;28;20011;-90
2023/09/02 10:51:52;;;;;;;;;;;;;;;26.48;53.47;101678.94;5027079;28;19917;-90
2023/09/02 10:54:18;;;;;;;;;;;;;;;26.50;53.47;101678.94;5047445;28;19924;-90
2023/09/02 10:56:43;;;;;;;;;;;;;;;26.51;53.83;101675.38;5022073;28;19921;-91
2023/09/02 10:59:09;;;;;;;;;;;;;;;26.52;53.71;101680.75;5015442;28;20334;-90
2023/09/02 11:01:41;;;;;;;;;;;;;;;26.50;53.95;101673.56;5026111;28;20411;-89
2023/09/02 11:04:06;;;;;;;;;;;;;;;26.50;54.18;101663.78;5032424;28;19917;-90
2023/09/02 11:06:33;;;;;;;;;;;;;;;26.50;54.63;101671.81;5016208;28;19917;-90
2023/09/02 11:08:58;;;;;;;;;;;;;;;26.47;54.95;101662.88;5016741;28;19921;-91
2023/09/02 11:11:24;;;;;;;;;;;;;;;26.45;55.51;101661.97;5018170;28;20011;-90
2023/09/02 11:14:07;;;;;;;;;;;;;;;26.45;55.25;101665.53;5019402;28;19924;-89
2023/09/02 11:16:38;;;;;;;;;;;;;;;26.46;55.34;101664.66;5024026;28;20037;-90
2023/09/02 11:19:08;;;;;;;;;;;;;;;26.47;56.09;101660.19;5046684;28;19924;-89
2023/09/02 11:21:42;;;;;;;;;;;;;;;26.52;55.32;101662.00;5028886;28;19947;-89
2023/09/02 11:24:14;;;;;;;;;;;;;;;26.52;55.69;101658.41;5031525;28;19917;-90
2023/09/02 11:26:53;;;;;;;;;;;;;;;26.56;56.60;101663.81;5036597;28;19917;-88
2023/09/02 11:29:25;;;;;;;;;;;;;;;26.53;56.82;101654.84;5030697;28;20007;-89
2023/09/02 11:31:58;;;;;;;;;;;;;;;26.57;57.50;101643.28;5026358;28;19913;-88
2023/09/02 11:34:25;;;;;;;;;;;;;;;26.58;56.32;101653.09;5029376;28;19913;-89
2023/09/02 11:36:52;;;;;;;;;;;;;;;26.60;56.97;101645.94;5026649;28;19925;-88
2023/09/02 11:39:18;;;;;;;;;;;;;;;26.66;56.18;101653.13;5011176;28;20457;-89
2023/09/02 11:41:43;;;;;;;;;;;;;;;26.72;57.53;101658.47;5030709;28;20087;-89
2023/09/02 11:44:11;;;;;;;;;;;;;;;26.68;57.86;101654.00;5023777;28;19917;-89
2023/09/02 11:46:37;;;;;;;;;;;;;;;26.74;56.43;101654.03;5031822;28;19972;-90
2023/09/02 11:49:03;;;;;;;;;;;;;;;26.76;56.20;101642.41;5048777;28;20592;-91
2023/09/02 11:51:28;;;;;;;;;;;;;;;26.77;57.13;101646.84;5063282;28;19916;-89
2023/09/02 11:53:57;;;;;;;;;;;;;;;26.83;57.31;101650.44;5068868;28;20059;-89
2023/09/02 11:56:24;;;;;;;;;;;;;;;26.85;56.11;101651.34;5047916;28;20306;-89
2023/09/02 11:58:49;;;;;;;;;;;;;;;26.85;55.95;101648.66;5053552;28;19931;-89
2023/09/02 12:01:15;;;;;;;;;;;;;;;26.80;56.82;101646.00;5051629;28;19913;-89
2023/09/02 12:03:40;;;;;;;;;;;;;;;26.82;57.08;101641.53;5056676;28;19921;-91
2023/09/02 12:06:06;;;;;;;;;;;;;;;26.84;56.57;101649.53;5050688;28;20386;-91
2023/09/02 12:08:32;;;;;;;;;;;;;;;26.87;56.77;101652.25;5082805;28;20053;-89
2023/09/02 12:11:02;;;;;;;;;;;;;;;26.86;57.12;101648.69;5046933;28;20337;-89
2023/09/02 12:13:27;;;;;;;;;;;;;;;26.86;57.33;101642.41;5048204;28;19920;-89
2023/09/02 12:15:54;;;;;;;;;;;;;;;26.84;58.04;101647.78;5058661;28;19925;-88
2023/09/02 12:18:20;;;;;;;;;;;;;;;26.84;57.57;101646.88;5077375;28;19924;-91
2023/09/02 12:20:46;;;;;;;;;;;;;;;26.86;57.42;101648.69;5038911;28;20400;-91
2023/09/02 12:23:12;;;;;;;;;;;;;;;26.86;57.20;101656.72;5034433;28;19917;-89
2023/09/02 12:25:40;;;;;;;;;;;;;;;26.83;57.34;101656.69;5035026;28;19913;-89
2023/09/02 12:28:13;;;;;;;;;;;;;;;26.84;58.02;101645.09;5069375;28;19947;-89
2023/09/02 12:30:39;;;;;;;;;;;;;;;26.87;58.31;101655.81;5054532;28;19921;-89
2023/09/02 12:33:05;;;;;;;;;;;;;;;26.86;57.40;101651.34;5079428;28;20454;-89